createdAt,value
2022-09-20T00:01:12.805Z,6.78
2022-09-20T00:03:40.545Z,7.50
2022-09-20T00:06:08.864Z,6.65
2022-09-20T00:08:36.246Z,6.93
2022-09-20T00:11:06.616Z,4.93
2022-09-20T00:13:33.997Z,7.20
2022-09-20T00:16:01.299Z,6.82
2022-09-20T00:18:28.641Z,4.85
2022-09-20T00:20:55.937Z,7.93
2022-09-20T00:23:23.229Z,8.10
2022-09-20T00:25:55.659Z,9.02
2022-09-20T00:28:24.309Z,7.95
2022-09-20T00:30:51.933Z,5.53
2022-09-20T00:33:19.233Z,6.45
2022-09-20T00:35:45.746Z,6.50
2022-09-20T00:38:13.758Z,9.45
2022-09-20T00:40:41.128Z,8.40
2022-09-20T00:43:08.477Z,3.70
2022-09-20T00:45:37.203Z,6.28
2022-09-20T00:48:05.333Z,5.13
2022-09-20T00:50:34.461Z,4.40
2022-09-20T00:53:03.423Z,7.00
2022-09-20T00:55:30.756Z,6.35
2022-09-20T00:57:58.061Z,4.05
2022-09-20T01:00:25.373Z,6.05
2022-09-20T01:02:54.901Z,6.93
2022-09-20T01:05:22.232Z,4.32
2022-09-20T01:07:49.607Z,3.33
2022-09-20T01:10:16.990Z,4.93
2022-09-20T01:12:45.959Z,3.53
2022-09-20T01:15:14.320Z,5.45
2022-09-20T01:17:42.874Z,5.95
2022-09-20T01:20:13.025Z,5.68
2022-09-20T01:22:42.941Z,4.68
2022-09-20T01:25:10.936Z,4.32
2022-09-20T01:27:42.023Z,5.68
2022-09-20T01:30:09.852Z,5.95
2022-09-20T01:32:42.427Z,3.47
2022-09-20T01:35:11.419Z,2.35
2022-09-20T01:37:40.938Z,2.88
2022-09-20T01:40:10.612Z,3.60
2022-09-20T01:42:38.662Z,3.10
2022-09-20T01:45:10.441Z,4.18
2022-09-20T01:47:39.775Z,3.70
2022-09-20T01:50:08.958Z,5.78
2022-09-20T01:53:03.686Z,4.05
2022-09-20T01:55:38.934Z,3.13
2022-09-20T01:58:24.023Z,6.60
2022-09-20T02:00:59.732Z,3.53
2022-09-20T02:03:41.599Z,3.05
2022-09-20T02:06:11.814Z,1.33
2022-09-20T02:08:42.057Z,3.15
2022-09-20T02:11:13.052Z,5.95
2022-09-20T02:13:44.506Z,4.82
2022-09-20T02:16:23.434Z,6.60
2022-09-20T02:18:58.541Z,4.45
2022-09-20T02:21:29.052Z,3.25
2022-09-20T02:23:57.767Z,2.45
2022-09-20T02:26:29.494Z,3.13
2022-09-20T02:28:57.530Z,4.10
2022-09-20T02:31:32.784Z,3.08
2022-09-20T02:34:06.026Z,3.53
2022-09-20T02:36:36.835Z,3.25
2022-09-20T02:39:07.746Z,5.45
2022-09-20T02:41:42.903Z,2.75
2022-09-20T02:44:11.862Z,2.95
2022-09-20T02:46:42.129Z,2.05
2022-09-20T02:49:11.637Z,1.90
2022-09-20T02:51:40.552Z,2.17
2022-09-20T02:54:12.856Z,2.00
2022-09-20T02:56:42.413Z,3.13
2022-09-20T02:59:11.866Z,2.50
2022-09-20T03:01:42.177Z,3.85
2022-09-20T03:04:12.932Z,2.42
2022-09-20T03:06:41.261Z,4.18
2022-09-20T03:09:11.671Z,2.90
2022-09-20T03:11:41.347Z,3.05
2022-09-20T03:14:11.642Z,2.67
2022-09-20T03:16:48.641Z,2.88
2022-09-20T03:19:21.544Z,2.13
2022-09-20T03:21:52.115Z,3.88
2022-09-20T03:24:21.218Z,4.85
2022-09-20T03:26:52.028Z,3.95
2022-09-20T03:29:22.133Z,2.60
2022-09-20T03:31:55.325Z,4.85
2022-09-20T03:34:27.614Z,3.97
2022-09-20T03:36:58.345Z,2.25
2022-09-20T03:39:32.880Z,2.50
2022-09-20T03:42:06.212Z,3.30
2022-09-20T03:44:46.751Z,3.13
2022-09-20T03:47:18.942Z,4.60
2022-09-20T03:49:59.903Z,2.45
2022-09-20T03:52:30.850Z,2.35
2022-09-20T03:55:05.638Z,2.10
2022-09-20T03:57:36.001Z,2.10
2022-09-20T04:00:06.099Z,4.50
2022-09-20T04:02:37.780Z,2.95
2022-09-20T04:05:06.151Z,2.97
2022-09-20T04:07:35.278Z,2.78
2022-09-20T04:10:26.738Z,4.97
2022-09-20T04:12:58.130Z,3.10
2022-09-20T04:15:28.654Z,4.00
2022-09-20T04:17:59.071Z,3.70
2022-09-20T04:20:29.723Z,3.13
2022-09-20T04:22:58.578Z,3.75
2022-09-20T04:25:28.132Z,3.20
2022-09-20T04:27:56.498Z,2.45
2022-09-20T04:30:26.790Z,3.22
2022-09-20T04:32:56.400Z,3.47
2022-09-20T04:35:48.015Z,2.95
2022-09-20T04:38:15.865Z,2.72
2022-09-20T04:40:49.933Z,2.42
2022-09-20T04:43:32.861Z,3.53
2022-09-20T04:46:33.104Z,1.83
2022-09-20T04:49:08.119Z,2.63
2022-09-20T04:52:08.503Z,3.30
2022-09-20T04:54:50.681Z,3.13
2022-09-20T04:57:25.739Z,3.97
2022-09-20T04:59:57.061Z,3.22
2022-09-20T05:02:57.564Z,3.78
2022-09-20T05:05:32.707Z,2.17
2022-09-20T05:08:09.780Z,3.35
2022-09-20T05:10:50.426Z,2.78
2022-09-20T05:13:23.342Z,2.85
2022-09-20T05:15:52.853Z,2.20
2022-09-20T05:18:35.034Z,5.25
2022-09-20T05:21:09.319Z,3.65
2022-09-20T05:23:39.780Z,2.45
2022-09-20T05:26:08.415Z,2.33
2022-09-20T05:28:38.051Z,2.67
2022-09-20T05:31:06.615Z,3.42
2022-09-20T05:33:35.036Z,2.58
2022-09-20T05:36:05.098Z,3.30
2022-09-20T05:38:35.335Z,2.88
2022-09-20T05:41:08.552Z,3.75
2022-09-20T05:43:38.027Z,6.07
2022-09-20T05:46:08.264Z,2.10
2022-09-20T05:48:38.072Z,2.58
2022-09-20T05:51:07.470Z,4.68
2022-09-20T05:53:51.315Z,14.18
2022-09-20T05:56:20.717Z,4.32
2022-09-20T05:58:53.442Z,3.28
2022-09-20T06:01:21.791Z,5.35
2022-09-20T06:03:54.311Z,2.75
2022-09-20T06:06:22.987Z,2.67
2022-09-20T06:08:57.679Z,1.80
2022-09-20T06:11:32.747Z,1.63
2022-09-20T06:14:10.050Z,9.20
2022-09-20T06:16:40.226Z,3.70
2022-09-20T06:19:10.270Z,1.88
2022-09-20T06:21:41.845Z,2.17
2022-09-20T06:24:13.569Z,3.25
2022-09-20T06:26:40.844Z,5.97
2022-09-20T06:29:11.508Z,4.90
2022-09-20T06:31:39.010Z,3.38
2022-09-20T06:34:06.717Z,4.05
2022-09-20T06:36:51.704Z,1.77
2022-09-20T06:39:38.532Z,3.75
2022-09-20T06:42:06.208Z,3.28
2022-09-20T06:44:35.972Z,5.60
2022-09-20T06:47:03.457Z,6.85
2022-09-20T06:49:30.817Z,6.78
2022-09-20T06:51:59.042Z,4.88
2022-09-20T06:54:26.997Z,3.47
2022-09-20T06:56:55.219Z,9.00
2022-09-20T06:59:22.542Z,5.95
2022-09-20T07:01:51.762Z,5.18
2022-09-20T07:04:19.037Z,4.55
2022-09-20T07:06:46.325Z,5.53
2022-09-20T07:09:13.611Z,4.15
2022-09-20T07:11:40.903Z,8.05
2022-09-20T07:14:08.315Z,4.13
2022-09-20T07:16:36.854Z,7.28
2022-09-20T07:19:06.476Z,4.50
2022-09-20T07:21:33.777Z,4.57
2022-09-20T07:24:01.942Z,6.65
2022-09-20T07:26:30.097Z,5.85
2022-09-20T07:28:57.432Z,8.25
2022-09-20T07:31:25.172Z,9.93
2022-09-20T07:33:52.546Z,9.90
2022-09-20T07:36:21.202Z,4.90
2022-09-20T07:38:48.642Z,27.25
2022-09-20T07:41:16.904Z,11.15
2022-09-20T07:43:44.222Z,17.20
2022-09-20T07:46:13.583Z,24.25
2022-09-20T07:48:41.048Z,20.00
2022-09-20T07:51:09.172Z,11.65
2022-09-20T07:53:37.854Z,9.80
2022-09-20T07:56:06.085Z,12.02
2022-09-20T07:58:34.409Z,4.00
2022-09-20T08:01:02.312Z,8.80
2022-09-20T08:03:30.418Z,11.55
2022-09-20T08:05:59.812Z,4.47
2022-09-20T08:08:27.149Z,7.53
2022-09-20T08:11:02.031Z,6.07
2022-09-20T08:16:17.005Z,5.05
2022-09-20T08:18:46.243Z,9.52
2022-09-20T08:21:13.609Z,5.45
2022-09-20T08:23:41.971Z,4.03
2022-09-20T08:26:12.252Z,6.47
2022-09-20T08:28:39.667Z,4.15
2022-09-20T08:31:07.376Z,4.50
2022-09-20T08:33:36.416Z,4.65
2022-09-20T08:36:03.724Z,8.40
2022-09-20T08:41:21.789Z,17.55
2022-09-20T08:43:49.582Z,13.57
2022-09-20T08:46:17.537Z,9.52
2022-09-20T08:48:44.943Z,11.15
2022-09-20T08:51:12.699Z,8.07
2022-09-20T08:53:40.788Z,12.10
2022-09-20T08:56:09.108Z,5.90
2022-09-20T08:58:38.179Z,14.27
2022-09-20T09:01:06.780Z,7.00
2022-09-20T09:03:34.141Z,9.45
2022-09-20T09:06:01.669Z,10.57
2022-09-20T09:08:29.271Z,7.15
2022-09-20T09:10:56.850Z,5.47
2022-09-20T09:13:25.664Z,6.28
2022-09-20T09:15:55.579Z,4.80
2022-09-20T09:18:22.899Z,4.18
2022-09-20T09:20:50.198Z,7.88
2022-09-20T09:23:25.157Z,7.43
2022-09-20T09:25:52.434Z,1.77
2022-09-20T09:28:21.600Z,4.85
2022-09-20T09:30:49.060Z,6.90
2022-09-20T09:33:19.135Z,6.28
2022-09-20T09:35:46.543Z,4.03
2022-09-20T09:38:18.161Z,10.32
2022-09-20T09:40:50.046Z,6.40
2022-09-20T09:43:21.331Z,6.55
2022-09-20T09:45:49.118Z,10.98
2022-09-20T09:48:21.184Z,9.30
2022-09-20T09:50:48.810Z,6.50
2022-09-20T09:53:16.541Z,2.50
2022-09-20T09:55:49.039Z,4.50
2022-09-20T09:58:18.004Z,5.55
2022-09-20T10:00:46.637Z,5.85
2022-09-20T10:03:29.703Z,7.38
2022-09-20T10:06:01.661Z,3.13
2022-09-20T10:08:30.494Z,3.13
2022-09-20T10:11:00.970Z,9.88
2022-09-20T10:13:29.425Z,6.90
2022-09-20T10:15:57.418Z,4.95
2022-09-20T10:18:28.038Z,8.93
2022-09-20T10:21:05.026Z,5.55
2022-09-20T10:26:33.882Z,3.45
2022-09-20T10:29:03.409Z,12.65
2022-09-20T10:31:36.767Z,5.28
2022-09-20T10:34:11.656Z,6.15
2022-09-20T10:36:43.485Z,5.13
2022-09-20T10:39:11.542Z,6.03
2022-09-20T10:42:00.272Z,2.92
2022-09-20T10:44:34.259Z,3.83
2022-09-20T10:47:03.397Z,2.03
2022-09-20T10:49:35.146Z,3.00
2022-09-20T10:52:11.086Z,2.53
2022-09-20T10:54:42.176Z,7.88
2022-09-20T10:57:13.743Z,0.90
2022-09-20T10:59:43.151Z,6.43
2022-09-20T11:02:14.925Z,6.93
2022-09-20T11:04:51.932Z,6.63
2022-09-20T11:07:22.736Z,6.00
2022-09-20T11:09:50.517Z,7.25
2022-09-20T11:12:21.058Z,9.05
2022-09-20T11:14:49.815Z,8.75
2022-09-20T11:17:18.161Z,8.13
2022-09-20T11:19:48.634Z,2.88
2022-09-20T11:22:17.145Z,7.93
2022-09-20T11:24:46.261Z,8.73
2022-09-20T11:27:13.845Z,6.45
2022-09-20T11:29:42.115Z,3.45
2022-09-20T11:32:13.710Z,5.32
2022-09-20T11:34:48.119Z,10.77
2022-09-20T11:37:15.377Z,5.47
2022-09-20T11:39:43.909Z,6.07
2022-09-20T11:42:15.154Z,3.95
2022-09-20T11:44:42.583Z,5.70
2022-09-20T11:47:12.531Z,9.77
2022-09-20T11:49:43.066Z,3.50
2022-09-20T11:52:21.669Z,3.03
2022-09-20T11:55:08.018Z,3.03
2022-09-20T11:57:36.654Z,7.53
2022-09-20T12:00:04.671Z,2.75
2022-09-20T12:02:33.496Z,5.93
2022-09-20T12:05:01.901Z,5.00
2022-09-20T12:07:30.015Z,3.97
2022-09-20T12:09:58.084Z,3.13
2022-09-20T12:12:38.688Z,7.07
2022-09-20T12:15:06.801Z,6.38
2022-09-20T12:17:52.645Z,2.78
2022-09-20T12:20:39.124Z,7.82
2022-09-20T12:23:21.418Z,3.22
2022-09-20T12:26:00.596Z,2.13
2022-09-20T12:28:35.078Z,4.07
2022-09-20T12:31:20.895Z,4.43
2022-09-20T12:33:55.667Z,3.17
2022-09-20T12:36:22.972Z,5.30
2022-09-20T12:38:58.049Z,5.18
2022-09-20T12:41:28.531Z,4.47
2022-09-20T12:43:58.698Z,5.97
2022-09-20T12:46:40.957Z,4.45
2022-09-20T12:49:32.561Z,3.95
2022-09-20T12:52:17.548Z,2.88
2022-09-20T12:54:50.215Z,5.47
2022-09-20T12:57:18.135Z,2.83
2022-09-20T12:59:55.027Z,3.05
2022-09-20T13:02:41.015Z,5.25
2022-09-20T13:05:17.987Z,3.33
2022-09-20T13:07:47.842Z,3.92
2022-09-20T13:10:26.137Z,1.83
2022-09-20T13:12:54.646Z,3.30
2022-09-20T13:15:23.447Z,3.88
2022-09-20T13:17:52.021Z,3.80
2022-09-20T13:20:20.595Z,4.18
2022-09-20T13:22:48.328Z,3.35
2022-09-20T13:25:16.021Z,4.05
2022-09-20T13:27:45.095Z,3.63
2022-09-20T13:30:16.320Z,4.32
2022-09-20T13:32:44.945Z,1.88
2022-09-20T13:35:14.473Z,3.08
2022-09-20T13:37:46.868Z,3.90
2022-09-20T13:40:17.574Z,3.60
2022-09-20T13:42:44.920Z,3.80
2022-09-20T13:45:13.068Z,7.65
2022-09-20T13:47:41.905Z,5.43
2022-09-20T13:50:17.122Z,2.38
2022-09-20T13:52:45.337Z,2.58
2022-09-20T13:55:24.532Z,14.70
2022-09-20T13:57:52.166Z,3.75
2022-09-20T14:00:19.614Z,6.68
2022-09-20T14:02:47.655Z,7.75
2022-09-20T14:05:16.807Z,9.15
2022-09-20T14:07:44.769Z,3.10
2022-09-20T14:10:27.601Z,8.85
2022-09-20T14:12:55.282Z,5.63
2022-09-20T14:15:22.583Z,4.85
2022-09-20T14:17:52.046Z,9.27
2022-09-20T14:20:20.678Z,11.20
2022-09-20T14:22:47.980Z,4.15
2022-09-20T14:25:20.142Z,5.78
2022-09-20T14:27:47.449Z,2.33
2022-09-20T14:30:29.974Z,7.53
2022-09-20T14:32:57.274Z,3.53
2022-09-20T14:35:26.873Z,6.18
2022-09-20T14:37:54.840Z,6.50
2022-09-20T14:40:26.106Z,7.57
2022-09-20T14:42:54.838Z,10.75
2022-09-20T14:45:23.210Z,6.13
2022-09-20T14:47:54.427Z,11.35
2022-09-20T14:50:24.555Z,8.70
2022-09-20T14:53:16.030Z,15.32
2022-09-20T14:55:55.290Z,13.48
2022-09-20T14:58:24.603Z,8.05
2022-09-20T15:00:52.694Z,20.80
2022-09-20T15:03:23.951Z,11.85
2022-09-20T15:05:51.251Z,20.77
2022-09-20T15:08:19.691Z,19.30
2022-09-20T15:10:48.649Z,8.50
2022-09-20T15:13:16.505Z,13.10
2022-09-20T15:15:44.331Z,8.52
2022-09-20T15:18:14.005Z,19.65
2022-09-20T15:20:41.306Z,18.25
2022-09-20T15:23:08.611Z,14.82
2022-09-20T15:25:35.939Z,28.13
2022-09-20T15:28:04.679Z,22.63
2022-09-20T15:30:31.972Z,18.13
2022-09-20T15:33:02.833Z,16.25
2022-09-20T15:35:30.529Z,25.90
2022-09-20T15:37:57.826Z,17.67
2022-09-20T15:40:25.196Z,19.77
2022-09-20T15:42:55.571Z,10.57
2022-09-20T15:45:25.998Z,13.98
2022-09-20T15:47:54.936Z,12.95
2022-09-20T15:50:23.232Z,8.35
2022-09-20T15:52:51.279Z,11.48
2022-09-20T15:55:18.765Z,8.98
2022-09-20T15:57:46.094Z,10.18
2022-09-20T16:00:13.674Z,9.48
2022-09-20T16:02:42.312Z,12.98
2022-09-20T16:05:10.871Z,12.55
2022-09-20T16:07:38.167Z,8.60
2022-09-20T16:10:06.027Z,10.63
2022-09-20T16:12:33.529Z,7.88
2022-09-20T16:15:00.861Z,2.67
2022-09-20T16:17:42.103Z,7.32
2022-09-20T16:20:11.153Z,5.40
2022-09-20T16:22:38.459Z,7.82
2022-09-20T16:25:06.640Z,8.45
2022-09-20T16:27:34.649Z,5.82
2022-09-20T16:30:02.307Z,4.82
2022-09-20T16:32:29.628Z,7.88
2022-09-20T16:34:58.450Z,8.15
2022-09-20T16:37:32.529Z,4.75
2022-09-20T16:39:59.924Z,4.95
2022-09-20T16:42:27.679Z,6.88
2022-09-20T16:44:54.948Z,6.78
2022-09-20T16:47:24.908Z,6.85
2022-09-20T16:49:54.070Z,6.15
2022-09-20T16:52:21.443Z,7.30
2022-09-20T16:54:50.119Z,6.43
2022-09-20T16:57:17.391Z,8.02
2022-09-20T16:59:46.021Z,3.95
2022-09-20T17:02:13.400Z,7.53
2022-09-20T17:04:41.761Z,16.00
2022-09-20T17:07:09.096Z,30.70
2022-09-20T17:09:36.378Z,80.63
2022-09-20T17:12:06.579Z,62.35
2022-09-20T17:14:33.871Z,50.10
2022-09-20T17:17:01.186Z,43.95
2022-09-20T17:19:28.731Z,44.72
2022-09-20T17:21:56.045Z,46.38
2022-09-20T17:24:24.164Z,44.40
2022-09-20T17:26:51.597Z,39.85
2022-09-20T17:29:20.530Z,45.05
2022-09-20T17:31:54.085Z,45.10
2022-09-20T17:34:22.336Z,42.80
2022-09-20T17:36:50.267Z,42.08
2022-09-20T17:39:17.705Z,42.15
2022-09-20T17:41:45.616Z,37.50
2022-09-20T17:44:13.170Z,38.05
2022-09-20T17:46:42.137Z,35.63
2022-09-20T17:49:09.737Z,41.17
2022-09-20T17:51:37.493Z,47.25
2022-09-20T17:54:04.887Z,42.35
2022-09-20T17:56:32.221Z,43.67
2022-09-20T17:59:00.013Z,41.03
2022-09-20T18:01:27.598Z,43.50
2022-09-20T18:03:57.168Z,39.42
2022-09-20T18:06:25.146Z,39.28
2022-09-20T18:08:52.751Z,36.55
2022-09-20T18:11:20.829Z,35.60
2022-09-20T18:13:48.184Z,39.20
2022-09-20T18:16:15.873Z,42.10
2022-09-20T18:18:43.512Z,41.88
2022-09-20T18:21:13.200Z,39.10
2022-09-20T18:23:40.559Z,46.15
2022-09-20T18:26:24.070Z,36.17
2022-09-20T18:28:51.842Z,32.45
2022-09-20T18:31:19.357Z,29.42
2022-09-20T18:33:46.692Z,35.60
2022-09-20T18:36:16.748Z,36.55
2022-09-20T18:38:44.866Z,32.70
2022-09-20T18:41:13.940Z,32.33
2022-09-20T18:43:42.864Z,35.60
2022-09-20T18:46:10.228Z,34.05
2022-09-20T18:48:39.685Z,34.35
2022-09-20T18:51:07.368Z,32.15
2022-09-20T18:53:36.598Z,32.45
2022-09-20T18:56:07.429Z,28.25
2022-09-20T18:58:34.902Z,28.80
2022-09-20T19:01:06.290Z,31.33
2022-09-20T19:03:38.657Z,23.75
2022-09-20T19:06:06.176Z,23.75
2022-09-20T19:08:34.744Z,27.15
2022-09-20T19:11:04.287Z,23.65
2022-09-20T19:13:35.633Z,25.48
2022-09-20T19:16:26.913Z,22.05
2022-09-20T19:19:07.478Z,21.48
2022-09-20T19:21:36.377Z,17.38
2022-09-20T19:24:07.220Z,19.35
2022-09-20T19:26:37.975Z,18.58
2022-09-20T19:29:07.541Z,23.13
2022-09-20T19:31:35.093Z,16.80
2022-09-20T19:34:03.992Z,24.20
2022-09-20T19:36:33.006Z,19.15
2022-09-20T19:39:02.011Z,19.48
2022-09-20T19:41:32.027Z,26.33
2022-09-20T19:44:04.510Z,16.65
2022-09-20T19:46:37.694Z,22.10
2022-09-20T19:49:07.336Z,13.23
2022-09-20T19:51:34.905Z,16.58
2022-09-20T19:54:02.520Z,24.15
2022-09-20T19:56:30.024Z,18.25
2022-09-20T19:58:57.688Z,14.50
2022-09-20T20:01:26.952Z,12.13
2022-09-20T20:03:54.697Z,15.90
2022-09-20T20:06:22.586Z,12.85
2022-09-20T20:08:51.269Z,12.02
2022-09-20T20:11:19.198Z,13.52
2022-09-20T20:14:06.959Z,11.65
2022-09-20T20:16:37.538Z,17.08
2022-09-20T20:19:08.439Z,16.20
2022-09-20T20:21:38.360Z,17.58
2022-09-20T20:24:07.404Z,18.73
2022-09-20T20:26:35.056Z,12.15
2022-09-20T20:29:02.369Z,15.98
2022-09-20T20:31:30.318Z,9.20
2022-09-20T20:33:59.225Z,12.63
2022-09-20T20:36:26.544Z,6.78
2022-09-20T20:38:55.009Z,10.00
2022-09-20T20:41:23.535Z,8.93
2022-09-20T20:43:55.893Z,9.73
2022-09-20T20:46:23.708Z,10.43
2022-09-20T20:48:51.055Z,19.25
2022-09-20T20:51:19.947Z,8.68
2022-09-20T20:53:47.809Z,6.93
2022-09-20T20:56:15.599Z,9.35
2022-09-20T20:58:43.512Z,9.98
2022-09-20T21:01:11.546Z,12.77
2022-09-20T21:03:38.972Z,7.57
2022-09-20T21:06:06.578Z,6.03
2022-09-20T21:08:35.819Z,9.40
2022-09-20T21:11:03.659Z,5.15
2022-09-20T21:13:31.132Z,9.23
2022-09-20T21:16:08.085Z,10.38
2022-09-20T21:18:35.478Z,10.95
2022-09-20T21:21:03.420Z,11.05
2022-09-20T21:23:33.579Z,11.50
2022-09-20T21:26:07.663Z,9.73
2022-09-20T21:28:35.582Z,10.25
2022-09-20T21:31:05.021Z,11.00
2022-09-20T21:33:33.113Z,9.45
2022-09-20T21:36:01.022Z,10.20
2022-09-20T21:38:29.158Z,11.98
2022-09-20T21:41:07.412Z,10.77
2022-09-20T21:43:34.779Z,9.18
2022-09-20T21:46:02.160Z,9.65
2022-09-20T21:48:29.516Z,9.65
2022-09-20T21:51:03.212Z,9.85
2022-09-20T21:53:30.620Z,11.80
2022-09-20T21:55:58.901Z,13.55
2022-09-20T21:58:27.623Z,12.20
2022-09-20T22:00:58.467Z,7.80
2022-09-20T22:03:25.773Z,6.55
2022-09-20T22:05:53.074Z,7.95
2022-09-20T22:08:20.409Z,7.47
2022-09-20T22:10:55.809Z,7.00
2022-09-20T22:13:23.140Z,7.10
2022-09-20T22:15:51.917Z,5.35
2022-09-20T22:18:19.235Z,7.30
2022-09-20T22:20:46.808Z,5.05
2022-09-20T22:23:14.383Z,6.55
2022-09-20T22:25:42.150Z,7.57
2022-09-20T22:28:09.651Z,8.00
2022-09-20T22:30:37.151Z,7.80
2022-09-20T22:33:06.209Z,8.15
2022-09-20T22:35:33.707Z,5.00
2022-09-20T22:38:02.037Z,4.80
2022-09-20T22:40:29.639Z,6.20
2022-09-20T22:42:57.178Z,6.18
2022-09-20T22:45:24.756Z,7.07
2022-09-20T22:47:52.251Z,10.20
2022-09-20T22:50:21.117Z,5.03
2022-09-20T22:52:48.579Z,7.15
2022-09-20T22:55:16.133Z,5.97
2022-09-20T22:57:43.616Z,7.63
2022-09-20T23:00:11.765Z,5.22
2022-09-20T23:02:39.236Z,5.80
2022-09-20T23:05:07.027Z,4.47
2022-09-20T23:07:35.890Z,5.68
2022-09-20T23:10:03.389Z,4.82
2022-09-20T23:12:30.863Z,3.83
2022-09-20T23:14:58.371Z,5.50
2022-09-20T23:17:25.841Z,7.55
2022-09-20T23:19:53.994Z,7.00
2022-09-20T23:22:21.479Z,4.45
2022-09-20T23:24:50.338Z,3.78
2022-09-20T23:27:18.649Z,3.58
2022-09-20T23:29:46.128Z,5.65
2022-09-20T23:32:13.626Z,5.18
2022-09-20T23:34:41.113Z,14.70
2022-09-20T23:37:08.625Z,14.60
2022-09-20T23:39:36.135Z,8.38
2022-09-20T23:42:05.258Z,9.30
2022-09-20T23:44:32.737Z,8.77
2022-09-20T23:47:00.262Z,9.63
2022-09-20T23:49:27.764Z,5.82
2022-09-20T23:51:55.241Z,7.15
2022-09-20T23:54:22.696Z,5.00
2022-09-20T23:56:50.224Z,10.15
2022-09-20T23:59:19.056Z,3.90
